createdAt,value
2017-02-21T00:06:05.797Z,1004.43
2017-02-21T00:16:05.867Z,1004.36
2017-02-21T00:26:05.838Z,1004.38
2017-02-21T00:36:05.791Z,1004.35
2017-02-21T00:46:05.846Z,1004.47
2017-02-21T00:56:05.807Z,1004.4
2017-02-21T01:06:05.862Z,1004.22
2017-02-21T01:16:05.827Z,1004.36
2017-02-21T01:26:05.899Z,1004.37
2017-02-21T01:36:05.859Z,1004.31
2017-02-21T01:46:05.916Z,1004.29
2017-02-21T01:56:05.880Z,1004.21
2017-02-21T02:06:05.929Z,1004.3
2017-02-21T02:16:05.892Z,1004.35
2017-02-21T02:26:05.975Z,1004.18
2017-02-21T02:36:05.936Z,1004.16
2017-02-21T02:46:05.986Z,1004.29
2017-02-21T02:56:05.954Z,1004.29
2017-02-21T03:06:06.028Z,1004.18
2017-02-21T03:16:05.972Z,1004.24
2017-02-21T03:26:05.901Z,1004.38
2017-02-21T03:36:05.996Z,1004.28
2017-02-21T03:46:05.964Z,1004.36
2017-02-21T03:56:06.021Z,1004.58
2017-02-21T04:06:05.978Z,1004.51
2017-02-21T04:16:06.048Z,1004.51
2017-02-21T04:26:06.004Z,1004.26
2017-02-21T04:36:06.071Z,1004.31
2017-02-21T04:46:06.025Z,1004.47
2017-02-21T04:56:06.092Z,1004.77
2017-02-21T05:06:06.043Z,1004.87
2017-02-21T05:16:06.110Z,1004.79
2017-02-21T05:26:06.070Z,1004.75
2017-02-21T05:36:06.135Z,1004.83
2017-02-21T05:46:06.096Z,1004.87
2017-02-21T05:56:06.064Z,1004.96
2017-02-21T06:06:06.122Z,1005.17
2017-02-21T06:16:06.085Z,1005.22
2017-02-21T06:26:06.151Z,1005.34
2017-02-21T06:36:06.102Z,1005.48
2017-02-21T06:46:06.175Z,1005.61
2017-02-21T06:56:06.135Z,1005.56
2017-02-21T07:06:06.191Z,1005.67
2017-02-21T07:16:06.151Z,1005.76
2017-02-21T07:26:06.121Z,1005.83
2017-02-21T07:36:06.168Z,1005.76
2017-02-21T07:46:06.247Z,1005.93
2017-02-21T07:56:06.206Z,1005.83
2017-02-21T08:06:06.263Z,1006.03
2017-02-21T08:16:07.248Z,1006.18
2017-02-21T08:26:06.161Z,1006.11
2017-02-21T08:36:06.239Z,1006.29
2017-02-21T08:46:06.220Z,1006.36
2017-02-21T08:56:06.266Z,1006.33
2017-02-21T09:06:06.227Z,1006.54
2017-02-21T09:16:06.304Z,1006.45
2017-02-21T09:26:06.247Z,1006.7
2017-02-21T09:36:06.319Z,1006.84
2017-02-21T09:46:06.276Z,1006.97
2017-02-21T09:56:06.333Z,1007.17
2017-02-21T10:06:06.291Z,1007.12
2017-02-21T10:16:06.377Z,1007.04
2017-02-21T10:26:06.269Z,1007.02
2017-02-21T10:36:06.300Z,1007.03
2017-02-21T10:46:06.300Z,1007.03
2017-02-21T10:56:06.319Z,1007.08
2017-02-21T11:06:06.374Z,1007.13
2017-02-21T11:16:06.352Z,1007.11
2017-02-21T11:26:06.354Z,1007.11
2017-02-21T11:36:06.350Z,1007.15
2017-02-21T11:46:06.355Z,1007.13
2017-02-21T11:56:06.367Z,1007.13
2017-02-21T12:06:06.364Z,1007.03
2017-02-21T12:16:06.374Z,1006.88
2017-02-21T12:26:06.398Z,1006.97
2017-02-21T12:36:06.398Z,1006.98
2017-02-21T12:46:06.404Z,1006.88
2017-02-21T12:56:06.413Z,1006.84
2017-02-21T13:06:06.437Z,1006.91
2017-02-21T13:16:06.447Z,1006.88
2017-02-21T13:26:06.449Z,1006.87
2017-02-21T13:36:06.449Z,1006.9
2017-02-21T13:46:06.462Z,1006.87
2017-02-21T13:56:06.473Z,1006.88
2017-02-21T14:06:06.483Z,1007.03
2017-02-21T14:16:06.493Z,1007.01
2017-02-21T14:26:06.510Z,1006.97
2017-02-21T14:36:06.524Z,1006.99
2017-02-21T14:46:06.514Z,1006.89
2017-02-21T14:56:06.514Z,1006.87
2017-02-21T15:06:06.509Z,1006.74
2017-02-21T15:16:06.512Z,1006.68
2017-02-21T15:26:06.591Z,1006.52
2017-02-21T15:36:06.565Z,1006.64
2017-02-21T15:46:06.620Z,1006.6
2017-02-21T15:56:06.578Z,1006.55
2017-02-21T16:06:06.639Z,1006.54
2017-02-21T16:16:06.595Z,1006.56
2017-02-21T16:26:06.506Z,1006.52
2017-02-21T16:36:06.502Z,1006.43
2017-02-21T16:46:06.496Z,1006.52
2017-02-21T16:56:06.508Z,1006.56
2017-02-21T17:06:06.500Z,1006.47
2017-02-21T17:16:06.539Z,1006.43
2017-02-21T17:26:06.490Z,1006.55
2017-02-21T17:36:06.503Z,1006.46
2017-02-21T17:46:06.529Z,1006.35
2017-02-21T17:56:06.498Z,1006.42
2017-02-21T18:06:06.493Z,1006.27
2017-02-21T18:16:06.484Z,1006.15
2017-02-21T18:26:06.522Z,1006.01
2017-02-21T18:36:06.494Z,1005.9
2017-02-21T18:46:06.495Z,1005.72
2017-02-21T18:56:06.488Z,1005.62
2017-02-21T19:06:06.502Z,1005.57
2017-02-21T19:16:06.491Z,1005.49
2017-02-21T19:26:06.483Z,1005.37
2017-02-21T19:36:06.476Z,1005.37
2017-02-21T19:46:06.563Z,1005.22
2017-02-21T20:06:12.549Z,1004.97
2017-02-21T20:26:06.513Z,1004.92
2017-02-21T20:36:06.607Z,1004.71
2017-02-21T20:46:06.539Z,1004.53
2017-02-21T21:06:06.631Z,1004.25
2017-02-21T21:16:06.631Z,1004.13
2017-02-21T21:26:06.552Z,1004.02
2017-02-21T21:36:06.515Z,1003.67
2017-02-21T21:46:06.478Z,1003.53
2017-02-21T21:56:10.277Z,1003.35
2017-02-21T22:06:06.501Z,1003.04
2017-02-21T22:16:06.466Z,1002.78
2017-02-21T22:26:06.536Z,1002.68
2017-02-21T22:36:06.488Z,1002.46
2017-02-21T22:46:08.466Z,1002.32
2017-02-21T22:56:06.497Z,1002.24
2017-02-21T23:06:06.509Z,1001.98
2017-02-21T23:16:06.484Z,1001.71
2017-02-21T23:26:06.484Z,1001.54
2017-02-21T23:36:06.549Z,1001.47
2017-02-21T23:46:06.577Z,1001.13
2017-02-21T23:56:06.550Z,1000.99
